Flight Track Log - Related Links

Times and Time Zones

All times are in EDT time to prevent confusion due to time zone crossing. See the UAL582 flight status page for this flight to view local times or setup timezone preferences in your user account.


Time Position Orientation Groundspeed Altitude Reporting Facility
EDT Latitude Longitude Course Direction KTS MPH feet Rate Location/Type
Fri 11:18:19 PM 41.9333 -87.9167 180° South 168 193 1,900  Level Chicago TRACON
Fri 11:19:19 PM 41.8833 -87.9167 180° South 226 260 3,700 1,538 Climbing Chicago TRACON
Fri 11:19:37 PM 41.8744 -87.9194 193° South 230 265 3,900 2,734 Climbing Chicago Center
Fri 11:20:38 PM 41.7964 -87.9122 176° South 270 311 7,300 3,295 Climbing Chicago Center
Fri 11:21:39 PM 41.7125 -87.9047 176° South 298 343 10,600 2,754 Climbing Chicago Center
Fri 11:22:40 PM 41.6222 -87.8964 176° South 322 371 12,900 2,049 Climbing Chicago Center
Fri 11:23:42 PM 41.5150 -87.8869 176° South 376 433 14,800 2,244 Climbing Chicago Center
Fri 11:24:43 PM 41.4000 -87.8783 177° South 403 464 17,500 2,557 Climbing Chicago Center
Fri 11:25:44 PM 41.2858 -87.8906 185° South 405 466 20,000 2,262 Climbing Chicago Center
Fri 11:26:45 PM 41.1689 -87.8911 180° South 415 478 22,100 2,066 Climbing Chicago Center
Fri 11:27:46 PM 41.0261 -87.8856 178° South 425 489 24,200 1,918 Climbing Chicago Center
Fri 11:28:47 PM 40.9050 -87.8814 179° South 433 498 26,000 1,574 Climbing Chicago Center
Fri 11:29:48 PM 40.7822 -87.8772 179° South 441 507 27,400 1,377 Climbing Chicago Center
Fri 11:30:49 PM 40.6581 -87.8731 179° South 446 513 28,800 1,686 Climbing Chicago Center
Fri 11:31:49 PM 40.5350 -87.8694 179° South 445 512 30,800 1,587 Climbing Chicago Center
Fri 11:32:50 PM 40.4133 -87.8658 179° South 440 506 32,000 1,255 Climbing Chicago Center
Fri 11:33:39 PM 40.3172 -87.8639 179° South 440 506 33,100 1,091 Climbing Indianapolis Center
Fri 11:34:40 PM 40.1958 -87.8592 178° South 441 507 34,000 443 Climbing Indianapolis Center
Fri 11:35:41 PM 40.0753 -87.8272 169° South 445 512 34,000  Level Indianapolis Center
Fri 11:36:41 PM 39.9564 -87.7897 166° South 444 511 34,000  Level Indianapolis Center
Fri 11:37:43 PM 39.8147 -87.7475 167° South 440 506 34,000 393 Level Indianapolis Center
Fri 11:38:43 PM 39.6978 -87.7122 167° South 436 502 34,800 496 Climbing Indianapolis Center
Fri 11:39:44 PM 39.5814 -87.6775 167° South 433 498 35,000 98 Climbing Indianapolis Center
Fri 11:40:45 PM 39.4664 -87.6414 166° South 428 493 35,000  Level Indianapolis Center
Fri 11:41:46 PM 39.3508 -87.6069 167° South 429 494 35,000  Level Indianapolis Center
Fri 11:42:47 PM 39.2358 -87.5722 167° South 428 493 35,000  Level Indianapolis Center
Fri 11:43:48 PM 39.1203 -87.5381 167° South 428 493 35,000  Level Indianapolis Center
Fri 11:44:49 PM 38.9850 -87.4972 167° South 428 493 35,000  Level Indianapolis Center
Fri 11:45:50 PM 38.8694 -87.4625 167° South 426 490 35,000  Level Indianapolis Center
Fri 11:46:51 PM 38.7550 -87.4286 167° South 423 487 35,000  Level Indianapolis Center
Fri 11:47:52 PM 38.6392 -87.3956 167° South 424 488 35,000  Level Indianapolis Center
Fri 11:48:53 PM 38.5244 -87.3614 167° South 425 489 35,000  Level Indianapolis Center
Fri 11:49:54 PM 38.4103 -87.3286 167° South 423 487 35,000  Level Indianapolis Center
Fri 11:50:55 PM 38.2981 -87.2964 167° South 420 483 35,000  Level Indianapolis Center
Fri 11:51:56 PM 38.1861 -87.2647 167° South 419 482 35,000  Level Indianapolis Center
Fri 11:52:57 PM 38.0742 -87.2306 166° South 417 480 35,000  Level Indianapolis Center
Fri 11:53:58 PM 37.9606 -87.1978 167° South 419 482 35,000  Level Indianapolis Center
Fri 11:54:58 PM 37.8464 -87.1647 167° South 420 483 35,000  Level Indianapolis Center
Fri 11:55:59 PM 37.7325 -87.1319 167° South 419 482 35,000  Level Indianapolis Center
Fri 11:57:00 PM 37.5978 -87.0922 167° South 414 476 35,000  Level Indianapolis Center
Fri 11:58:01 PM 37.4836 -87.0633 169° South 412 474 35,000  Level Indianapolis Center
Fri 11:59:02 PM 37.3714 -87.0283 166° South 412 474 35,000  Level Indianapolis Center
Sat 12:00:08 AM 37.2614 -86.9978 168° South 409 471 35,000  Level Memphis Center
Sat 12:01:08 AM 37.1397 -86.9664 168° South 414 476 35,000  Level Memphis Center
Sat 12:02:08 AM 37.0283 -86.9322 166° South 414 476 35,000 50 Level Memphis Center
Sat 12:03:08 AM 36.9208 -86.8875 162° South 414 476 35,100 650 Climbing Memphis Center
Sat 12:04:08 AM 36.8147 -86.8247 155° Southeast 421 484 36,300 950 Climbing Memphis Center
Sat 12:05:08 AM 36.7089 -86.7619 155° Southeast 421 484 37,000 350 Climbing Memphis Center
Sat 12:06:08 AM 36.5986 -86.6944 154° Southeast 434 499 37,000  Level Memphis Center
Sat 12:07:08 AM 36.4861 -86.6275 154° Southeast 434 499 37,000  Level Memphis Center
Sat 12:08:08 AM 36.3842 -86.5703 156° South 439 505 37,000  Level Memphis Center
Sat 12:09:08 AM 36.2717 -86.5058 155° Southeast 445 512 37,000 50 Level Memphis Center
Sat 12:10:08 AM 36.1572 -86.4419 156° South 445 512 37,100 50 Climbing Memphis Center
Sat 12:11:08 AM 36.0319 -86.3708 155° Southeast 445 512 37,100 -50 Level Memphis Center
Sat 12:12:08 AM 35.9194 -86.3072 155° Southeast 445 512 37,000 -35 Descending Memphis Center
Sat 12:13:58 AM 35.7142 -86.1897 155° Southeast 452 520 37,000  Level Atlanta Center
Sat 12:14:58 AM 35.6108 -86.1333 156° South 452 520 37,000 -450 Level Atlanta Center
Sat 12:15:58 AM 35.5014 -86.0617 152° Southeast 452 520 36,100 -1,000 Descending Atlanta Center
Sat 12:16:58 AM 35.3800 -85.9569 145° Southeast 475 547 35,000 -1,050 Descending Atlanta Center
Sat 12:17:58 AM 35.2731 -85.8603 144° Southeast 486 559 34,000 -950 Descending Atlanta Center
Sat 12:18:58 AM 35.1761 -85.7767 145° Southeast 481 554 33,100 -950 Descending Atlanta Center
Sat 12:19:58 AM 35.0669 -85.6806 144° Southeast 481 554 32,100 -1,000 Descending Atlanta Center
Sat 12:20:58 AM 34.9617 -85.5872 144° Southeast 481 554 31,100 -550 Descending Atlanta Center
Sat 12:21:58 AM 34.8542 -85.4917 144° Southeast 481 554 31,000 -50 Descending Atlanta Center
Sat 12:22:58 AM 34.7469 -85.3989 145° Southeast 481 554 31,000  Level Atlanta Center
Sat 12:23:58 AM 34.6372 -85.3036 144° Southeast 481 554 31,000  Level Atlanta Center
Sat 12:24:58 AM 34.5317 -85.2114 144° Southeast 481 554 31,000 -1,200 Level Atlanta Center
Sat 12:25:58 AM 34.4261 -85.1167 143° Southeast 476 548 28,600 -2,550 Descending Atlanta Center
Sat 12:26:58 AM 34.3183 -85.0247 145° Southeast 476 548 25,900 -2,850 Descending Atlanta Center
Sat 12:27:58 AM 34.2083 -84.9306 145° Southeast 476 548 22,900 -2,800 Descending Atlanta Center
Sat 12:28:58 AM 34.1025 -84.8417 145° Southeast 476 548 20,300 -2,550 Descending Atlanta Center
Sat 12:29:58 AM 34.0072 -84.7556 143° Southeast 464 534 17,800 -2,650 Descending Atlanta Center
Sat 12:30:58 AM 33.9117 -84.6744 145° Southeast 435 501 15,000 -2,400 Descending Atlanta Center
Sat 12:31:58 AM 33.8181 -84.5989 146° Southeast 411 473 13,000 -1,669 Descending Atlanta Center
Sat 12:33:11 AM 33.7333 -84.4833 131° Southeast 331 381 11,300 -1,669 Descending Atlanta TRACON
Sat 12:34:11 AM 33.7333 -84.3833 90° East 323 372 9,300 -1,950 Descending Atlanta TRACON
Sat 12:35:11 AM 33.7333 -84.2833 90° East 302 348 7,400 -2,050 Descending Atlanta TRACON
Sat 12:36:11 AM 33.7000 -84.2167 121° Southeast 283 326 5,200 -1,857 Descending Atlanta TRACON
Sat 12:37:17 AM 33.6500 -84.2667 220° Southwest 226 260 3,500 -1,333 Descending Atlanta TRACON
Sat 12:38:17 AM 33.6500 -84.3333 270° West 157 181 2,400 -950 Descending Atlanta TRACON
Sat 12:39:17 AM 33.6500 -84.3667 270° West 129 148 1,600 -800 Descending Atlanta TRACON
Sat 12:41:00 AM 33.6333 -84.4167 140° Southeast  Level FlightAware Approximate
Sat 12:48:00 AM 33.6367 -84.4279 140° Southeast  Level Estimated

Login

Don't have an account? Register now (free) for customized features, flight alerts, and more!